map of RKV home
RKV - Airport
Location
City:  Reykjavík, Iceland
ICAO:BIRK
IATA:RKV

Details
Type:Airport (Aerodrome, Airfield)
Latitude:64°07'48"N (64.130000)
Longitude:21°56'26"W (-21.940555)
Elevation:48 ft (15 m)
Variation:13.48°W (WMM2015 magnetic declination)
0.27° annual change
Runways:3
Longest:5141 × 148 ft (1567 × 45 m), paved

Time
Time Zone:UTC+0
Local Time:

Weather
METAR:BIRK 162200Z 08010KT 9999 FEW030 BKN120 M03/M09 Q1014
TAF:BIRK 161943Z 1621/1721 09005KT CAVOK TX00/1715Z TNM05/1621Z
BECMG 1621/1623 09015KT 9999 FEW025 BKN035
BECMG 1715/1718 6000 SNRA BKN015 OVC050

Related Locations
Nearby:
Farthest:NZTB: 11685 mi / 18805 km
Terra Nova Bay [Mario Zucchelli Station], AQ

Find:

   beyond  
but within

Other Information
Maps:
NOTAMs:
Links:
Sources:

  
  • flag of Iceland
  • flag of Reykjavík
  

Sectional Chart

Flight Planning
at skyvector.com

Satellite Image

Google Maps Satellite view

 

Copyright © 2004-2019 Karl L. Swartz. All rights reserved.
The Great Circle Mapper name and logo are trademarks of the Great Circle Mapper.
All other trademarks mentioned herein belong to their respective owners.
Please see credits for attibutions and further copyright information.

  Follow gcmap on Facebook Follow gcmap on Twitter Follow gcmap on Google+ GCmap on LinkedIn

hCard Microformat

Geo Microformat